Tiempo atmosférico en la estación meteorológica de Ledesma, Salamanca (790 m.)



Fecha
DESCASC
Temp. máxima en grados centígrados (hora)
DESCASC
Temp. mínima en grados centígrados (hora)
DESCASC
Temp. media en grados centígrados
DESCASC
Racha de viento máxima en m/sg (hora)
DESCASC
Velocidad máxima media en intervalos de 10 minutos(hora)
DESCASC
Precipitaciones diarias en mm
DESCASC
Precipitaciones de 00:00 a 06:00 en mm
DESCASC
Precipitaciones de 06:00 a 12:00 en mm
DESCASC
Precipitaciones de 12:00 a 18:00 en mm
DESCASC
Precipitaciones de 18:00 a 24:00 en mm
DESCASC
05-12-2019 9.5 (16:10) -1.1 (06:30) 4.2 8.89 (10:40) 5.83 (12:20) 0 0 0 0 0
04-12-2019 6.9 (15:40) -1.9 (03:50) 2.5 10.56 (10:30) 7.5 (10:30) 0 0 0 0 0
03-12-2019 5.8 (16:00) -0.3 (06:50) 2.8 11.39 (11:50) 7.5 (11:50) 0 0 0 0 0
02-12-2019 8.8 (14:40) 1.5 (00:00) 5.2 16.11 (14:10) 10 (11:50) 0 0 0 0 0
01-12-2019 8.8 (12:40) 5 (00:00) 6.9 10 (17:20) 6.39 (17:20) 2.6 0.6 0 2 0
30-11-2019 12.6 (13:00) 4.8 (00:00) 8.7 13.33 (15:40) 6.94 (11:00) 2.4 0 0 0 2.4
29-11-2019 13.6 (16:20) 10.8 (00:00) 12.2 8.33 (23:30) 5 (00:40) 0.2 0.2 0 0 0
28-11-2019 12.7 (15:30) 8.6 (00:00) 10.7 13.61 (16:10) 7.78 (16:00) 0.8 0 0 0 0.8
27-11-2019 11 (15:10) 7.1 (00:00) 9 13.61 (15:20) 8.06 (13:40) 0.2 0 0 0.2 0
26-11-2019 14.4 (13:20) 8.8 (00:00) 11.6 17.78 (16:50) 9.72 (15:20) 5.8 0 0.2 0.8 4.8
25-11-2019 13.8 (13:50) 9.6 (00:00) 11.7 13.89 (00:20) 8.33 (00:40) 0.2 0.2 0 0 0
24-11-2019 9.7 (22:50) 2.9 (00:00) 6.3 12.78 (22:50) 7.5 (22:50) 0.2 0 0 0 0.2
23-11-2019 9.9 (16:10) 4.3 (00:00) 7.1 13.33 (02:00) 7.5 (04:00) 0.2 0 0.2 0 0
22-11-2019 11.4 (14:40) 5.7 (00:00) 8.5 16.67 (11:30) 9.44 (11:30) 10.2 1.4 2.6 1.6 4.6
21-11-2019 10.3 (16:10) 4.8 (00:00) 7.6 8.06 (14:10) 5 (14:10) 5.6 1.2 2.8 1.4 0.2
20-11-2019 7.6 (16:40) 4.5 (09:40) 6 9.72 (16:10) 5.28 (16:50) 8 2.6 4.6 0.4 0.4
19-11-2019 9 (15:00) -2 (-00:0) 3.5 6.11 (14:30) 3.33 (14:10) 0 0 0 0 0
18-11-2019 10.1 (15:00) -1.4 (-00:0) 4.4 6.11 (00:30) 3.06 (00:30) 0.2 0 0.2 0 0
17-11-2019 9.9 (14:30) 3.4 (00:00) 6.6 10.83 (13:40) 5.56 (14:30) 3.2 0 0.4 2.8 0
16-11-2019 7.7 (15:00) -3.2 (-00:0) 2.2 9.72 (15:10) 5.83 (15:10) 0 0 0 0 0
15-11-2019 6.9 (16:00) 1.5 (00:00) 4.2 11.11 (02:10) 6.11 (02:10) 0 0 0 0 0
14-11-2019 7.5 (02:00) 2.5 (00:00) 5 16.11 (14:50) 8.89 (14:50) 6.8 4.2 0.8 1.6 0.2
13-11-2019 14.3 (14:20) 7.3 (00:00) 10.8 12.5 (00:40) 6.11 (00:40) 4.4 3 1.4 0 0
12-11-2019 9.8 (13:20) 1.7 (00:00) 5.8 10.83 (23:59) 6.39 (23:50) 3.4 0 0 0 3.4
11-11-2019 13.8 (16:10) 2.6 (23:59) 8.2 7.22 (16:00) 4.17 (16:50) 0 0 0 0 0
10-11-2019 7.7 (13:00) 3.9 (00:00) 5.8 11.67 (13:20) 5.83 (13:40) 0.2 0 0.2 0 0
09-11-2019 8.8 (17:20) 2.6 (00:00) 5.7 9.72 (23:00) 5 (20:50) 4.4 0 1.2 3.2 0
08-11-2019 9.2 (15:00) 2.2 (05:20) 5.7 10.56 (17:00) 6.11 (17:00) 0 0 0 0 0

Gráficas

Temp. máximas Temp. mínimas Temp. medias Precipitaciones Rachas de viento máximas Velocidades máximas media en intervalos de 10 minutos

Datos horarios

Fecha y hora oficial Temperatura (ºC) Velocidad del viento (km/h) Dirección del viento Racha (km/h) Dirección de racha Precipitación (mm) Presión (hPa) Tendencia (hPa) Humedad (%)
2019-12-07 23:00:00 0.8 2 Este 3 Este 0 -- -- 99
2019-12-07 22:00:00 1 2 Nordeste 4 Nordeste 0 -- -- 97
2019-12-07 21:00:00 2.5 2 Nordeste 5 Oeste 0 -- -- 96
2019-12-07 20:00:00 3.8 2 Noroeste 5 Noroeste 0 -- -- 96
2019-12-07 19:00:00 4.7 0 Calma 4 Nordeste 0 -- -- 94
2019-12-07 18:00:00 8.3 0 Calma 5 Oeste 0 -- -- 83
2019-12-07 17:00:00 12.3 3 Sudoeste 7 Oeste 0 -- -- 75
2019-12-07 16:00:00 12.1 4 Oeste 11 Oeste 0 -- -- 74
2019-12-07 15:00:00 11.4 5 Oeste 9 Oeste 0 -- -- 79
2019-12-07 14:00:00 10.4 3 Noroeste 7 Oeste 0 -- -- 82
2019-12-07 13:00:00 6.7 0 Calma 5 Este 0 -- -- 100
2019-12-07 12:00:00 3.9 3 Sur 5 Sur 0 -- -- 100
2019-12-07 11:00:00 2.1 2 Sur 5 Sur 0 -- -- 100
2019-12-07 10:00:00 1.1 3 Sudeste 5 Sudeste 0.2 -- -- 100
2019-12-07 09:00:00 1 3 Sudeste 5 Sudeste 0 -- -- 100
2019-12-07 08:00:00 1.4 0 Calma 4 Sudeste 0 -- -- 100
2019-12-07 07:00:00 1.9 2 Sudeste 8 Este 0 -- -- 100
2019-12-07 06:00:00 1.7 3 Este 10 Sudeste 0 -- -- 100
2019-12-07 05:00:00 2 2 Sudeste 5 Sur 0 -- -- 100
2019-12-07 04:00:00 2 0 Calma 4 Sudeste 0 -- -- 100
2019-12-07 03:00:00 1.9 0 Calma 4 Sudeste 0 -- -- 100
2019-12-07 02:00:00 0.7 0 Calma 2 Nordeste 0 -- -- 100
2019-12-07 01:00:00 1.5 0 Calma 5 Sudeste 0 -- -- 98
2019-12-07 00:00:00 2.7 0 Calma 2 Este 0 -- -- 98
2019-12-06 23:00:00 3.5 3 Sudeste 5 Sudeste 0 -- -- 100
2019-12-06 22:00:00 2.9 0 Calma 6 Sudeste 0 -- -- 100
2019-12-06 21:00:00 1.4 0 Calma 4 Nordeste 0 -- -- 99
2019-12-06 20:00:00 2.1 2 Nordeste 5 Nordeste 0 -- -- 98
2019-12-06 19:00:00 3.2 0 Calma 4 Nordeste 0 -- -- 95
2019-12-06 18:00:00 6.7 0 Calma 3 Este 0 -- -- 86
2019-12-06 17:00:00 9.9 0 Calma 7 Nordeste 0 -- -- 80
2019-12-06 16:00:00 9.2 3 Norte 6 Norte 0 -- -- 84
2019-12-06 15:00:00 9.1 3 Nordeste 8 Este 0 -- -- 83
2019-12-06 14:00:00 8.2 5 Norte 10 Oeste 0 -- -- 89
2019-12-06 13:00:00 5.7 0 Calma 7 Oeste 0 -- -- 100
2019-12-06 12:00:00 2.7 0 Calma 5 Oeste 0 -- -- 100
2019-12-06 11:00:00 1.2 3 Sur 6 Sur 0 -- -- 100
2019-12-06 10:00:00 0.4 3 Sudeste 7 Sudeste 0 -- -- 100
2019-12-06 09:00:00 0.1 0 Calma 10 Este 0 -- -- 99
2019-12-06 08:00:00 1.3 3 Este 9 Noroeste 0 -- -- 99
2019-12-06 07:00:00 1.9 7 Este 23 Nordeste 0 -- -- 99
2019-12-06 06:00:00 1.6 15 Nordeste 24 Nordeste 0 -- -- 100
2019-12-06 05:00:00 1.9 14 Nordeste 23 Nordeste 0 -- -- 100
2019-12-06 04:00:00 1.7 7 Nordeste 18 Nordeste 0 -- -- 100
2019-12-06 03:00:00 2.2 8 Este 18 Este 0 -- -- 99
2019-12-06 02:00:00 2.4 8 Este 16 Nordeste 0 -- -- 99
2019-12-06 01:00:00 2.8 8 Este 26 Nordeste 0 -- -- 98
2019-12-06 00:00:00 3.4 19 Nordeste 27 Nordeste 0 -- -- 97
2019-12-05 23:00:00 3.9 9 Nordeste 18 Este 0 -- -- 92
2019-12-05 22:00:00 5.5 13 Nordeste 28 Este 0 -- -- 87
2019-12-05 21:00:00 6.2 15 Nordeste 30 Este 0 -- -- 87
2019-12-05 20:00:00 6.4 17 Nordeste 25 Nordeste 0 -- -- 89
2019-12-05 19:00:00 6.7 14 Nordeste 21 Nordeste 0 -- -- 87
2019-12-05 18:00:00 7.6 12 Nordeste 25 Nordeste 0 -- -- 85
2019-12-05 17:00:00 8.5 13 Este 26 Este 0 -- -- 81
2019-12-05 16:00:00 9 18 Este 28 Nordeste 0 -- -- 79
2019-12-05 15:00:00 8.6 19 Nordeste 30 Nordeste 0 -- -- 83
2019-12-05 14:00:00 8.3 18 Nordeste 27 Nordeste 0 -- -- 85
2019-12-05 13:00:00 7.3 13 Nordeste 31 Nordeste 0 -- -- 88
2019-12-05 12:00:00 6.4 17 Este 29 Nordeste 0 -- -- 88
2019-12-05 11:00:00 5.9 17 Este 32 Este 0 -- -- 88
2019-12-05 10:00:00 2.2 3 Sur 9 Este 0 -- -- 100
2019-12-05 09:00:00 0.8 5 Nordeste 13 Este 0 -- -- 99
2019-12-05 08:00:00 1.4 8 Este 13 Este 0 -- -- 100
2019-12-05 07:00:00 -0.7 4 Nordeste 6 Nordeste 0 -- -- 98
2019-12-05 06:00:00 -0.5 2 Este 13 Nordeste 0 -- -- 97
2019-12-05 05:00:00 0.3 9 Nordeste 10 Nordeste 0 -- -- 98
2019-12-05 04:00:00 -0.8 0 Calma 3 Este 0 -- -- 95
2019-12-05 03:00:00 0.3 2 Este 4 Este 0 -- -- 97
2019-12-05 02:00:00 1 0 Calma 14 Nordeste 0 -- -- 91
2019-12-05 01:00:00 2.2 12 Nordeste 17 Nordeste 0 -- -- 90
2019-12-05 00:00:00 3.1 3 Este 17 Nordeste 0 -- -- 88
2019-12-04 23:00:00 3.6 10 Nordeste 16 Nordeste 0 -- -- 96
2019-12-04 22:00:00 4.1 12 Nordeste 16 Nordeste 0 -- -- 96
2019-12-04 21:00:00 3.4 5 Nordeste 12 Nordeste 0 -- -- 95
2019-12-04 20:00:00 3.8 9 Nordeste 13 Nordeste 0 -- -- 94
2019-12-04 19:00:00 4.7 5 Este 16 Este 0 -- -- 91
2019-12-04 18:00:00 5.7 7 Este 18 Nordeste 0 -- -- 89
2019-12-04 17:00:00 6.7 13 Nordeste 23 Este 0 -- -- 87
2019-12-04 16:00:00 6.8 12 Este 28 Este 0 -- -- 85
2019-12-04 15:00:00 6.6 17 Nordeste 31 Nordeste 0 -- -- 85
2019-12-04 14:00:00 6 20 Nordeste 33 Nordeste 0 -- -- 85
2019-12-04 13:00:00 5 13 Este 26 Nordeste 0 -- -- 88
2019-12-04 12:00:00 3.2 18 Este 32 Nordeste 0 -- -- 88
2019-12-04 11:00:00 2.2 17 Nordeste 38 Nordeste 0 -- -- 91
2019-12-04 10:00:00 0.8 20 Este 32 Nordeste 0 -- -- 93
2019-12-04 09:00:00 -0.1 9 Este 34 Nordeste 0 -- -- 94
2019-12-04 08:00:00 -0.6 23 Nordeste 34 Este 0 -- -- 97
2019-12-04 07:00:00 -0.9 19 Nordeste 30 Nordeste 0 -- -- 100
2019-12-04 06:00:00 -1.3 23 Nordeste 33 Nordeste 0 -- -- 100
2019-12-04 05:00:00 -1.4 5 Este 24 Nordeste 0 -- -- 100
2019-12-04 04:00:00 -1.8 5 Norte 10 Norte 0 -- -- 98
2019-12-04 03:00:00 -0.9 5 Este 15 Nordeste 0 -- -- 99
2019-12-04 02:00:00 -0.8 12 Este 32 Nordeste 0 -- -- 99
2019-12-04 01:00:00 -0.2 6 Este 13 Nordeste 0 -- -- 96
2019-12-04 00:00:00 0.2 7 Nordeste 17 Este 0 -- -- 95
2019-12-03 23:00:00 0.6 12 Nordeste 21 Nordeste 0 -- -- 95
2019-12-03 22:00:00 1.3 18 Nordeste 23 Nordeste 0 -- -- 93
2019-12-03 21:00:00 1 14 Nordeste 19 Nordeste 0 -- -- 94
2019-12-03 20:00:00 1.5 11 Nordeste 14 Nordeste 0 -- -- 92
2019-12-03 19:00:00 3.2 8 Nordeste 15 Nordeste 0 -- -- 87
2019-12-03 18:00:00 3.5 6 Nordeste 21 Este 0 -- -- 84
2019-12-03 17:00:00 5.4 12 Este 22 Nordeste 0 -- -- 75
2019-12-03 16:00:00 5.8 14 Este 28 Nordeste 0 -- -- 75
2019-12-03 15:00:00 4.8 18 Nordeste 27 Este 0 -- -- 77
2019-12-03 14:00:00 4.7 17 Nordeste 31 Nordeste 0 -- -- 77
2019-12-03 13:00:00 3.7 17 Este 34 Este 0 -- -- 85
2019-12-03 12:00:00 3.1 25 Este 41 Este 0 -- -- 82
2019-12-03 11:00:00 2.9 21 Este 34 Este 0 -- -- 85
2019-12-03 10:00:00 1.9 16 Este 24 Nordeste 0 -- -- 88
2019-12-03 09:00:00 0.4 7 Este 20 Este 0 -- -- 92
2019-12-03 08:00:00 0 10 Este 18 Este 0 -- -- 92
2019-12-03 07:00:00 -0.1 9 Este 24 Este 0 -- -- 92
2019-12-03 06:00:00 0.1 13 Este 23 Este 0 -- -- 93
2019-12-03 05:00:00 0.5 16 Este 30 Nordeste 0 -- -- 93
2019-12-03 04:00:00 0.5 17 Nordeste 32 Este 0 -- -- 92
2019-12-03 03:00:00 0.8 21 Nordeste 31 Nordeste 0 -- -- 91
2019-12-03 02:00:00 0.9 19 Nordeste 36 Este 0 -- -- 90
2019-12-03 01:00:00 1.1 26 Nordeste 39 Nordeste 0 -- -- 88
2019-12-03 00:00:00 1.5 30 Nordeste 44 Nordeste 0 -- -- 87
2019-12-02 23:00:00 2.3 26 Nordeste 44 Este 0 -- -- 87
2019-12-02 22:00:00 2.7 22 Nordeste 41 Nordeste 0 -- -- 87
2019-12-02 21:00:00 3.7 26 Nordeste 41 Este 0 -- -- 86
2019-12-02 20:00:00 4.6 28 Nordeste 53 Este 0 -- -- 85
2019-12-02 19:00:00 5.6 26 Este 44 Este 0 -- -- 82
2019-12-02 18:00:00 6.5 29 Nordeste 48 Nordeste 0 -- -- 79
2019-12-02 17:00:00 7.5 26 Nordeste 46 Este 0 -- -- 76
2019-12-02 16:00:00 8 24 Este 53 Este 0 -- -- 76
2019-12-02 15:00:00 8.3 32 Este 58 Nordeste 0 -- -- 71
2019-12-02 14:00:00 8 33 Nordeste 53 Este 0 -- -- 77
2019-12-02 13:00:00 8.3 28 Este 54 Este 0 -- -- 79
2019-12-02 12:00:00 7.1 36 Nordeste 54 Nordeste 0 -- -- 85
2019-12-02 11:00:00 5.7 31 Este 45 Nordeste 0 -- -- 90
2019-12-02 10:00:00 4.4 33 Nordeste 49 Nordeste 0 -- -- 92
2019-12-02 09:00:00 3.7 27 Este 42 Este 0 -- -- 95
2019-12-02 08:00:00 2.8 22 Nordeste 34 Nordeste 0 -- -- 97
2019-12-02 07:00:00 3.2 19 Este 39 Este 0 -- -- 95
2019-12-02 06:00:00 3.6 25 Este 40 Este 0 -- -- 93
2019-12-02 05:00:00 3.5 21 Nordeste 44 Nordeste 0 -- -- 95
2019-12-02 04:00:00 3.9 28 Nordeste 42 Nordeste 0 -- -- 93
2019-12-02 03:00:00 4.5 18 Nordeste 28 Nordeste 0 -- -- 94
2019-12-02 02:00:00 4.6 17 Nordeste 30 Nordeste 0 -- -- 95
2019-12-02 01:00:00 5.3 19 Nordeste 35 Nordeste 0 -- -- 94
2019-12-02 00:00:00 5.4 17 Nordeste 29 Nordeste 0 -- -- 95
2019-12-01 23:00:00 5.6 17 Nordeste 27 Nordeste 0 -- -- 96
2019-12-01 22:00:00 5.5 17 Nordeste 26 Nordeste 0 -- -- 98
2019-12-01 21:00:00 5.7 15 Nordeste 24 Nordeste 0 -- -- 97
2019-12-01 20:00:00 5.8 14 Nordeste 27 Nordeste 0 -- -- 97
2019-12-01 19:00:00 6 17 Nordeste 33 Nordeste 0 -- -- 96
2019-12-01 18:00:00 6.6 17 Nordeste 36 Este 0.6 -- -- 96
2019-12-01 17:00:00 7.5 22 Nordeste 33 Nordeste 0 -- -- 95
2019-12-01 16:00:00 7.7 19 Nordeste 32 Nordeste 0 -- -- 89
2019-12-01 15:00:00 7.4 13 Nordeste 25 Nordeste 0.6 -- -- 95
2019-12-01 14:00:00 7.6 13 Nordeste 19 Nordeste 0.6 -- -- 92
2019-12-01 13:00:00 8.5 9 Sudeste 12 Sudeste 0.2 -- -- 93
2019-12-01 12:00:00 8.6 4 Oeste 12 Sudoeste 0 -- -- 91
2019-12-01 11:00:00 7.8 7 Sudoeste 14 Oeste 0 -- -- 95
2019-12-01 10:00:00 6.2 3 Sur 10 Sur 0 -- -- 97
2019-12-01 09:00:00 6.1 8 Sudoeste 14 Sudoeste 0 -- -- 97
2019-12-01 08:00:00 5.9 8 Sur 28 Sudoeste 0 -- -- 97
2019-12-01 07:00:00 6.3 18 Sudoeste 28 Sudoeste 0 -- -- 96
2019-12-01 06:00:00 6.1 14 Sudoeste 27 Sudoeste 0.2 -- -- 98
2019-12-01 05:00:00 5.8 15 Sudoeste 23 Sur 0.2 -- -- 99
2019-12-01 04:00:00 5.6 11 Sudoeste 22 Sudoeste 0.2 -- -- 97
2019-12-01 03:00:00 5.5 13 Sudoeste 25 Sudoeste 0 -- -- 94
2019-12-01 02:00:00 5 10 Sudoeste 22 Sudoeste 0 -- -- 97
2019-12-01 01:00:00 5.4 10 Sudoeste 21 Sudoeste 0 -- -- 98
2019-12-01 00:00:00 5.4 11 Sudoeste 19 Sudoeste 0 -- -- 98
2019-11-30 23:00:00 4.9 6 Sur 12 Sudoeste 0 -- -- 97
2019-11-30 22:00:00 5.3 6 Sudoeste 15 Sudoeste 0 -- -- 96
2019-11-30 21:00:00 5.4 6 Sudoeste 15 Sudoeste 2.4 -- -- 94
2019-11-30 20:00:00 6.1 2 Sudoeste 17 Oeste 0 -- -- 92
2019-11-30 19:00:00 7.2 7 Oeste 19 Oeste 0 -- -- 90
2019-11-30 18:00:00 8.1 10 Oeste 26 Oeste 0 -- -- 90
2019-11-30 17:00:00 8.1 13 Oeste 43 Noroeste 0 -- -- 89
2019-11-30 16:00:00 8 20 Noroeste 48 Oeste 0 -- -- 89
2019-11-30 15:00:00 9.8 19 Oeste 32 Oeste 0 -- -- 95
2019-11-30 14:00:00 9.8 14 Oeste 44 Oeste 0 -- -- 97
2019-11-30 13:00:00 12.6 23 Oeste 44 Oeste 0 -- -- 95
2019-11-30 12:00:00 11.6 18 Oeste 36 Oeste 0 -- -- 100
2019-11-30 11:00:00 11.6 25 Sudoeste 38 Sudoeste 0 -- -- 99
2019-11-30 10:00:00 11.2 22 Sudoeste 36 Sudoeste 0 -- -- 99
2019-11-30 09:00:00 11.2 19 Sudoeste 41 Sudoeste 0 -- -- 100
2019-11-30 08:00:00 11.1 22 Sudoeste 36 Sudoeste 0 -- -- 100
2019-11-30 07:00:00 11.1 17 Sudoeste 33 Sudoeste 0 -- -- 100
2019-11-30 06:00:00 11.2 18 Sudoeste 33 Sudoeste 0 -- -- 98
2019-11-30 05:00:00 11.3 16 Sudoeste 29 Sudoeste 0 -- -- 97
2019-11-30 04:00:00 10.9 10 Sudoeste 26 Sudoeste 0 -- -- 97
2019-11-30 03:00:00 11.5 11 Sudoeste 31 Sudoeste 0 -- -- 98
2019-11-30 02:00:00 11.8 12 Sudoeste 26 Sudoeste 0 -- -- 98
2019-11-30 01:00:00 11.8 6 Sudoeste 15 Sudoeste 0 -- -- 98
2019-11-30 00:00:00 11.9 12 Sudoeste 30 Sudoeste 0 -- -- 97
2019-11-29 23:00:00 12 12 Sudoeste 21 Sudoeste 0 -- -- 99
2019-11-29 22:00:00 11.9 8 Sudoeste 16 Sudoeste 0 -- -- 99
2019-11-29 21:00:00 12 10 Oeste 21 Oeste 0 -- -- 100
2019-11-29 20:00:00 12.1 6 Sudoeste 17 Oeste 0 -- -- 99
2019-11-29 19:00:00 12.5 8 Oeste 18 Oeste 0 -- -- 96
2019-11-29 18:00:00 12.7 7 Sudoeste 17 Sudoeste 0 -- -- 93
2019-11-29 17:00:00 13.3 11 Oeste 20 Oeste 0 -- -- 89
2019-11-29 16:00:00 13.5 10 Oeste 24 Oeste 0 -- -- 90
2019-11-29 15:00:00 13.4 14 Oeste 22 Sudoeste 0 -- -- 93
2019-11-29 14:00:00 13 11 Sudoeste 18 Sudoeste 0 -- -- 95
2019-11-29 13:00:00 12.8 11 Oeste 17 Sudoeste 0 -- -- 95
2019-11-29 12:00:00 12.2 6 Oeste 13 Oeste 0 -- -- 100
2019-11-29 11:00:00 11.8 4 Noroeste 13 Noroeste 0 -- -- 100
2019-11-29 10:00:00 11.5 4 Oeste 15 Oeste 0 -- -- 100
2019-11-29 09:00:00 11.2 11 Oeste 21 Oeste 0 -- -- 100
2019-11-29 08:00:00 11.3 6 Oeste 15 Oeste 0 -- -- 100
2019-11-29 07:00:00 11.4 10 Sudoeste 19 Sudoeste 0 -- -- 100
2019-11-29 06:00:00 11.2 6 Oeste 18 Oeste 0 -- -- 100
2019-11-29 05:00:00 11.2 10 Sudoeste 21 Oeste 0 -- -- 100
2019-11-29 04:00:00 11.2 10 Oeste 21 Oeste 0 -- -- 100
2019-11-29 03:00:00 11 8 Oeste 17 Sudoeste 0 -- -- 100
2019-11-29 02:00:00 10.8 9 Sudoeste 22 Oeste 0 -- -- 100
2019-11-29 01:00:00 10.9 14 Sudoeste 28 Sudoeste 0.2 -- -- 99
2019-11-29 00:00:00 10.9 16 Sudoeste 35 Sudoeste 0.2 -- -- 98
2019-11-28 23:00:00 10.9 17 Sudoeste 40 Sudoeste 0.2 -- -- 97
2019-11-28 22:00:00 10.6 16 Sudoeste 36 Sudoeste 0.4 -- -- 97
2019-11-28 21:00:00 10.8 21 Sudoeste 36 Sudoeste 0 -- -- 94
2019-11-28 20:00:00 11.5 21 Sudoeste 44 Sudoeste 0 -- -- 88
2019-11-28 19:00:00 11.8 23 Sudoeste 47 Sudoeste 0 -- -- 82
2019-11-28 18:00:00 11.8 23 Sudoeste 41 Oeste 0 -- -- 82
2019-11-28 17:00:00 12.3 24 Sudoeste 49 Sudoeste 0 -- -- 80
2019-11-28 16:00:00 12.4 28 Sudoeste 44 Sudoeste 0 -- -- 80
2019-11-28 15:00:00 12.2 22 Sudoeste 41 Sudoeste 0 -- -- 82
2019-11-28 14:00:00 11.7 19 Sudoeste 38 Sudoeste 0 -- -- 84
2019-11-28 13:00:00 11.2 21 Sudoeste 37 Sudoeste 0 -- -- 87
2019-11-28 12:00:00 10.6 21 Sudoeste 31 Sudoeste 0 -- -- 93
2019-11-28 11:00:00 9.8 16 Sudoeste 27 Sudoeste 0 -- -- 97
2019-11-28 10:00:00 9.5 15 Sudoeste 26 Sudoeste 0 -- -- 97
2019-11-28 09:00:00 9.4 13 Sudoeste 30 Sudoeste 0 -- -- 94
2019-11-28 08:00:00 9.7 19 Sudoeste 32 Sudoeste 0 -- -- 93
2019-11-28 07:00:00 9.3 18 Sudoeste 32 Sudoeste 0 -- -- 95
2019-11-28 06:00:00 9.2 16 Sudoeste 28 Sudoeste 0 -- -- 95
2019-11-28 05:00:00 8.9 14 Sudoeste 28 Oeste 0 -- -- 95
2019-11-28 04:00:00 8.7 13 Sudoeste 30 Sudoeste 0 -- -- 97
2019-11-28 03:00:00 8.6 15 Sudoeste 26 Sudoeste 0 -- -- 97
2019-11-28 02:00:00 8.8 13 Sudoeste 27 Sudoeste 0 -- -- 95
2019-11-28 01:00:00 8.8 15 Sudoeste 28 Sudoeste 0 -- -- 95
2019-11-28 00:00:00 8.6 17 Sudoeste 33 Sudoeste 0 -- -- 97
2019-11-27 23:00:00 8.8 13 Oeste 29 Oeste 0 -- -- 96
2019-11-27 22:00:00 8.4 11 Sudoeste 33 Oeste 0 -- -- 95
2019-11-27 21:00:00 8.8 19 Oeste 36 Oeste 0 -- -- 95
2019-11-27 20:00:00 8.8 18 Oeste 37 Oeste 0 -- -- 95
2019-11-27 19:00:00 9.1 13 Oeste 40 Oeste 0 -- -- 93
2019-11-27 18:00:00 9.9 18 Oeste 43 Oeste 0 -- -- 81
2019-11-27 17:00:00 10.7 22 Oeste 45 Sudoeste 0 -- -- 77
2019-11-27 16:00:00 10.7 24 Oeste 49 Oeste 0 -- -- 80
2019-11-27 15:00:00 10.9 22 Oeste 48 Oeste 0 -- -- 83
2019-11-27 14:00:00 10.7 25 Sudoeste 46 Oeste 0 -- -- 84
2019-11-27 06:00:00 -- -- -- -- -- -- -- -- --
2019-11-27 05:00:00 -- -- -- -- -- -- -- -- --
2019-11-27 04:00:00 -- -- -- -- -- -- -- -- --
2019-11-27 03:00:00 -- -- -- -- -- -- -- -- --
2019-11-27 02:00:00 8 17 Oeste 45 Oeste 0 -- -- 89
2019-11-27 01:00:00 8.3 27 Oeste 43 Oeste 0 -- -- 91
2019-11-27 00:00:00 8.8 16 Oeste 30 Oeste 0 -- -- 96
2019-11-26 23:00:00 9.5 16 Oeste 41 Oeste 0 -- -- 94
2019-11-26 22:00:00 9.9 24 Oeste 40 Oeste 2.6 -- -- 97
2019-11-26 21:00:00 10.3 18 Sudoeste 47 Oeste 2.2 -- -- 98
2019-11-26 20:00:00 11.8 23 Sudoeste 51 Sudoeste 0 -- -- 87
2019-11-26 19:00:00 11.8 25 Sudoeste 57 Oeste 0 -- -- 85
2019-11-26 18:00:00 12.4 30 Oeste 50 Oeste 0 -- -- 84
2019-11-26 17:00:00 13 29 Oeste 64 Sudoeste 0.4 -- -- 89
2019-11-26 16:00:00 13.3 28 Sudoeste 54 Sudoeste 0.2 -- -- 95
2019-11-26 15:00:00 13.9 33 Sudoeste 55 Sudoeste 0 -- -- 89
2019-11-26 14:00:00 14.1 26 Sudoeste 57 Sudoeste 0 -- -- 88
2019-11-26 13:00:00 14 29 Sudoeste 52 Sudoeste 0.2 -- -- 89
2019-11-26 12:00:00 13.2 27 Sudoeste 46 Sudoeste 0 -- -- 95
2019-11-26 11:00:00 12.2 23 Sudoeste 42 Sudoeste 0 -- -- 96
2019-11-26 10:00:00 11.6 21 Sudoeste 37 Sudoeste 0.2 -- -- 96
2019-11-26 09:00:00 11.4 20 Sudoeste 37 Sudoeste 0 -- -- 96
2019-11-26 08:00:00 11.9 22 Sudoeste 41 Sudoeste 0 -- -- 94
2019-11-26 07:00:00 12 20 Sudoeste 34 Sudoeste 0 -- -- 93
2019-11-26 06:00:00 11.2 13 Sudoeste 30 Sudoeste 0 -- -- 94
2019-11-26 05:00:00 10.6 14 Sudoeste 25 Sudoeste 0 -- -- 95
2019-11-26 04:00:00 10.4 13 Sudoeste 28 Sudoeste 0 -- -- 91
2019-11-26 03:00:00 9.9 12 Sudoeste 20 Sudoeste 0 -- -- 94
2019-11-26 02:00:00 9.4 8 Sudoeste 17 Sur 0 -- -- 96
2019-11-26 01:00:00 9.3 7 Sudoeste 19 Sudoeste 0 -- -- 95
2019-11-26 00:00:00 9.6 9 Sudoeste 23 Oeste 0 -- -- 95
2019-11-25 23:00:00 10.5 8 Oeste 18 Sudoeste 0 -- -- 96
2019-11-25 22:00:00 10.1 8 Sudoeste 16 Sudoeste 0 -- -- 97
2019-11-25 21:00:00 10.4 9 Sudoeste 15 Sudoeste 0 -- -- 95
2019-11-25 20:00:00 10.8 6 Sudoeste 17 Oeste 0 -- -- 93
2019-11-25 19:00:00 11.1 8 Oeste 17 Oeste 0 -- -- 86
2019-11-25 18:00:00 11 6 Sudoeste 22 Oeste 0 -- -- 84
2019-11-25 17:00:00 12.1 13 Oeste 28 Oeste 0 -- -- 80
2019-11-25 16:00:00 12.3 14 Oeste 32 Oeste 0 -- -- 81
2019-11-25 15:00:00 12.5 14 Oeste 32 Sudoeste 0 -- -- 82
2019-11-25 14:00:00 13.5 22 Oeste 37 Oeste 0 -- -- 75
2019-11-25 13:00:00 13.1 19 Oeste 33 Oeste 0 -- -- 81
2019-11-25 12:00:00 11.8 17 Oeste 33 Oeste 0 -- -- 87
2019-11-25 11:00:00 11.6 16 Oeste 38 Oeste 0 -- -- 90
2019-11-25 10:00:00 11.4 19 Oeste 36 Sudoeste 0 -- -- 94
2019-11-25 09:00:00 10.2 14 Sudoeste 32 Oeste 0 -- -- 97
2019-11-25 08:00:00 10.4 19 Oeste 34 Oeste 0 -- -- 96
2019-11-25 07:00:00 10.6 17 Sudoeste 32 Sudoeste 0 -- -- 96
2019-11-25 06:00:00 10.2 11 Sudoeste 21 Oeste 0 -- -- 97
2019-11-25 05:00:00 10.5 12 Sudoeste 25 Sudoeste 0 -- -- 97
2019-11-25 04:00:00 10.5 14 Oeste 31 Oeste 0 -- -- 97
2019-11-25 03:00:00 10.6 16 Sudoeste 28 Sudoeste 0 -- -- 98
2019-11-25 02:00:00 10.2 14 Sudoeste 37 Sudoeste 0 -- -- 99
2019-11-25 01:00:00 9.9 23 Oeste 50 Sudoeste 0.2 -- -- 98
2019-11-25 00:00:00 9.6 21 Sudoeste 43 Sudoeste 0.2 -- -- 98
2019-11-24 23:00:00 9.7 26 Sudoeste 46 Sudoeste 0 -- -- 95
2019-11-24 22:00:00 9.2 23 Sudoeste 37 Sudoeste 0 -- -- 97
2019-11-24 21:00:00 8.9 22 Sudoeste 41 Sudoeste 0 -- -- 95
2019-11-24 20:00:00 8.7 18 Sudoeste 31 Sur 0 -- -- 93
2019-11-24 19:00:00 8.9 14 Sudoeste 27 Sudoeste 0 -- -- 90
2019-11-24 18:00:00 9.3 14 Sudoeste 28 Oeste 0 -- -- 87
2019-11-24 17:00:00 9.1 14 Sudoeste 31 Sudoeste 0 -- -- 88
2019-11-24 16:00:00 9 12 Oeste 29 Oeste 0 -- -- 86
2019-11-24 15:00:00 8.7 12 Oeste 28 Sudoeste 0 -- -- 86
2019-11-24 14:00:00 8.6 14 Sudoeste 29 Sudoeste 0 -- -- 87
2019-11-24 13:00:00 7.5 12 Sudoeste 22 Oeste 0 -- -- 90
2019-11-24 12:00:00 6.6 14 Oeste 23 Oeste 0 -- -- 91
2019-11-24 11:00:00 5.9 11 Sudoeste 21 Sudoeste 0 -- -- 96
2019-11-24 10:00:00 3.6 3 Sur 9 Sudoeste 0 -- -- 100
2019-11-24 09:00:00 2.9 3 Sur 7 Sur 0 -- -- 98
2019-11-24 08:00:00 3.5 4 Sudoeste 16 Oeste 0 -- -- 97
2019-11-24 07:00:00 3.6 4 Oeste 19 Noroeste 0 -- -- 99
2019-11-24 06:00:00 3.6 9 Oeste 14 Oeste 0 -- -- 99
2019-11-24 05:00:00 3.3 4 Oeste 16 Noroeste 0 -- -- 98
2019-11-24 04:00:00 3.4 8 Oeste 14 Oeste 0 -- -- 98
2019-11-24 03:00:00 3.9 6 Oeste 18 Oeste 0 -- -- 96
2019-11-24 02:00:00 4.3 10 Oeste 17 Oeste 0 -- -- 96
2019-11-24 01:00:00 4.7 6 Oeste 19 Oeste 0 -- -- 93
2019-11-24 00:00:00 5.3 8 Oeste 17 Noroeste 0 -- -- 91
2019-11-23 23:00:00 5.7 10 Oeste 21 Oeste 0 -- -- 90
2019-11-23 22:00:00 5.8 13 Oeste 22 Oeste 0 -- -- 89
2019-11-23 21:00:00 6.7 9 Noroeste 29 Oeste 0 -- -- 84
2019-11-23 20:00:00 6.9 11 Oeste 21 Oeste 0 -- -- 82
2019-11-23 19:00:00 7.5 8 Oeste 21 Oeste 0 -- -- 76
2019-11-23 18:00:00 8.1 9 Oeste 26 Oeste 0 -- -- 69
2019-11-23 17:00:00 9.3 17 Noroeste 35 Noroeste 0 -- -- 63
2019-11-23 16:00:00 9.8 15 Noroeste 36 Noroeste 0 -- -- 69
2019-11-23 15:00:00 9.3 19 Noroeste 35 Oeste 0 -- -- 70
2019-11-23 14:00:00 8.1 14 Noroeste 30 Oeste 0 -- -- 75
2019-11-23 13:00:00 8.3 13 Noroeste 41 Noroeste 0 -- -- 76
2019-11-23 12:00:00 7.7 19 Noroeste 34 Noroeste 0 -- -- 78
2019-11-23 11:00:00 7 17 Noroeste 32 Noroeste 0 -- -- 79
2019-11-23 10:00:00 5.8 14 Oeste 28 Oeste 0 -- -- 85
2019-11-23 09:00:00 4.5 7 Oeste 21 Oeste 0 -- -- 93
2019-11-23 08:00:00 4.5 9 Oeste 26 Oeste 0 -- -- 91
2019-11-23 07:00:00 4.4 14 Oeste 35 Oeste 0.2 -- -- 91
2019-11-23 06:00:00 4.9 22 Oeste 42 Oeste 0 -- -- 86
2019-11-23 05:00:00 5.1 15 Oeste 47 Oeste 0 -- -- 85
2019-11-23 04:00:00 5.3 27 Oeste 47 Oeste 0 -- -- 85
2019-11-23 03:00:00 5.7 21 Oeste 45 Noroeste 0 -- -- 87
2019-11-23 02:00:00 5.7 24 Oeste 48 Oeste 0 -- -- 88
2019-11-23 01:00:00 5.6 18 Oeste 47 Oeste 0 -- -- 91
2019-11-23 00:00:00 6 29 Oeste 48 Oeste 0.4 -- -- 92
2019-11-22 23:00:00 6 24 Oeste 51 Oeste 2.6 -- -- 92
2019-11-22 22:00:00 7.3 19 Oeste 44 Oeste 0.2 -- -- 94
2019-11-22 21:00:00 7.8 19 Oeste 46 Oeste 1.4 -- -- 95
2019-11-22 20:00:00 8.3 17 Oeste 41 Oeste 0 -- -- 90
2019-11-22 19:00:00 8.6 25 Sudoeste 48 Sudoeste 0 -- -- 88
2019-11-22 18:00:00 8.3 13 Oeste 30 Oeste 0.2 -- -- 93
2019-11-22 17:00:00 9.2 17 Oeste 42 Oeste 0.4 -- -- 92
2019-11-22 16:00:00 10.2 21 Oeste 48 Sudoeste 0 -- -- 85
2019-11-22 15:00:00 11.1 27 Sudoeste 47 Oeste 0 -- -- 88
2019-11-22 14:00:00 10.9 27 Oeste 52 Sudoeste 0.4 -- -- 95
2019-11-22 13:00:00 11.2 28 Sudoeste 55 Sudoeste 0.6 -- -- 93
2019-11-22 12:00:00 10.4 28 Sudoeste 60 Sudoeste 1 -- -- 93
2019-11-22 11:00:00 11.3 32 Sudoeste 51 Sudoeste 0 -- -- 83
2019-11-22 10:00:00 9.9 26 Sudoeste 45 Sudoeste 0 -- -- 90
2019-11-22 09:00:00 8.5 24 Sudoeste 44 Sur 0.2 -- -- 93
2019-11-22 08:00:00 7.3 18 Sur 32 Sur 0.2 -- -- 96
2019-11-22 07:00:00 7.2 19 Sudoeste 34 Sudoeste 1.2 -- -- 96
2019-11-22 06:00:00 7.2 23 Sudoeste 34 Sudoeste 0.6 -- -- 95
2019-11-22 05:00:00 7.4 23 Sudoeste 36 Sudoeste 0.8 -- -- 95
2019-11-22 04:00:00 7.5 18 Sudoeste 30 Sudoeste 0 -- -- 95
2019-11-22 03:00:00 7.1 15 Sudoeste 24 Sudoeste 0 -- -- 95
2019-11-22 02:00:00 6.9 9 Sudoeste 19 Sudoeste 0 -- -- 96
2019-11-22 01:00:00 6.9 9 Sudoeste 18 Sudoeste 0 -- -- 97
2019-11-22 00:00:00 6.7 6 Sudoeste 13 Sudoeste 0 -- -- 97
2019-11-21 23:00:00 6.8 5 Sur 17 Sudoeste 0 -- -- 96
2019-11-21 22:00:00 6.9 9 Sudoeste 14 Sudoeste 0.2 -- -- 95
2019-11-21 21:00:00 7.3 8 Sudoeste 15 Sudoeste 0 -- -- 90
2019-11-21 20:00:00 7.2 4 Sudoeste 10 Sudoeste 0 -- -- 88
2019-11-21 19:00:00 7.6 7 Sudoeste 13 Sudoeste 0 -- -- 84
2019-11-21 18:00:00 8.4 9 Oeste 15 Sudoeste 0 -- -- 81
2019-11-21 17:00:00 9.8 5 Noroeste 14 Oeste 0 -- -- 77
2019-11-21 16:00:00 10.1 6 Noroeste 14 Oeste 0.2 -- -- 78
2019-11-21 15:00:00 8.4 13 Oeste 29 Oeste 1.2 -- -- 86
2019-11-21 14:00:00 9.4 15 Oeste 27 Oeste 0 -- -- 79
2019-11-21 13:00:00 8.7 14 Oeste 24 Oeste 0 -- -- 82
2019-11-21 12:00:00 7.9 9 Oeste 21 Oeste 0 -- -- 90
2019-11-21 11:00:00 7.3 12 Oeste 21 Oeste 0 -- -- 94
2019-11-21 10:00:00 5.8 8 Oeste 22 Oeste 1.6 -- -- 95
2019-11-21 09:00:00 6.2 11 Sudoeste 17 Sudoeste 0 -- -- 98
2019-11-21 08:00:00 5.9 8 Sudoeste 20 Sudoeste 0.4 -- -- 99
2019-11-21 07:00:00 5.8 11 Oeste 20 Sudoeste 0.8 -- -- 99
2019-11-21 06:00:00 5.4 13 Sudoeste 22 Sudoeste 0 -- -- 99
2019-11-21 05:00:00 5.3 12 Sudoeste 20 Sudoeste 0.2 -- -- 99
2019-11-21 04:00:00 5.2 12 Sudoeste 19 Sudoeste 0.4 -- -- 98
2019-11-21 03:00:00 4.9 9 Sudoeste 19 Sudoeste 0 -- -- 98
2019-11-21 02:00:00 4.9 6 Sudoeste 22 Sudoeste 0 -- -- 98
2019-11-21 01:00:00 5 12 Sudoeste 22 Sudoeste 0.6 -- -- 98
2019-11-21 00:00:00 4.8 9 Sudoeste 17 Sudoeste 0.4 -- -- 96
2019-11-20 23:00:00 4.5 10 Sudoeste 22 Sudoeste 0 -- -- 96
2019-11-20 22:00:00 5 13 Sudoeste 27 Sudoeste 0 -- -- 94
2019-11-20 21:00:00 4.8 8 Sur 17 Sudoeste 0 -- -- 95
2019-11-20 20:00:00 5.1 7 Sudoeste 18 Sudoeste 0 -- -- 94
2019-11-20 19:00:00 5.8 11 Sudoeste 21 Sudoeste 0 -- -- 91
2019-11-20 18:00:00 6.4 12 Sudoeste 22 Sudoeste 0 -- -- 91
2019-11-20 17:00:00 6.9 14 Sudoeste 35 Sudoeste 0 -- -- 89
2019-11-20 16:00:00 7 16 Sudoeste 31 Sudoeste 0 -- -- 90
2019-11-20 15:00:00 6.9 15 Sudoeste 24 Sudoeste 0 -- -- 91
2019-11-20 14:00:00 6.3 9 Sudoeste 17 Sudoeste 0.2 -- -- 95
2019-11-20 13:00:00 5.8 7 Sudoeste 20 Sudoeste 0.2 -- -- 97
2019-11-20 12:00:00 5.3 6 Sur 17 Sur 0.4 -- -- 97
2019-11-20 11:00:00 4.9 8 Sur 17 Sudoeste 1 -- -- 97
2019-11-20 10:00:00 4.5 10 Sur 32 Sur 1.8 -- -- 96
2019-11-20 09:00:00 4.8 13 Sur 23 Sur 0.6 -- -- 96
2019-11-20 08:00:00 5.2 8 Sudoeste 14 Sudoeste 0.4 -- -- 98
2019-11-20 07:00:00 5.1 3 Sur 6 Sur 0.4 -- -- 99
2019-11-20 06:00:00 5 3 Sur 8 Sur 0 -- -- 98
2019-11-20 05:00:00 4.8 5 Sudeste 11 Sudeste 0.6 -- -- 98
2019-11-20 04:00:00 4.7 5 Sur 12 Sudeste 0 -- -- 97
2019-11-20 03:00:00 4.8 5 Sudeste 9 Sudeste 1.2 -- -- 97
2019-11-20 02:00:00 5.1 2 Sudeste 5 Sur 0.6 -- -- 93
2019-11-20 01:00:00 5.7 3 Sudoeste 6 Sudoeste 0.2 -- -- 89
2019-11-20 00:00:00 6.4 4 Sudoeste 13 Sudoeste 0 -- -- 81
2019-11-19 23:00:00 6.4 7 Sudoeste 12 Sudoeste 0 -- -- 81
2019-11-19 22:00:00 6.4 4 Sur 10 Sudoeste 0 -- -- 82
2019-11-19 21:00:00 6.8 3 Sur 10 Sudoeste 0 -- -- 80
2019-11-19 20:00:00 7.2 4 Sudoeste 11 Sudoeste 0 -- -- 79
2019-11-19 19:00:00 7.6 3 Sur 6 Sudoeste 0 -- -- 76
2019-11-19 18:00:00 8 5 Sudoeste 11 Sudoeste 0 -- -- 73
2019-11-19 17:00:00 8.4 9 Sudoeste 17 Sudoeste 0 -- -- 69
2019-11-19 16:00:00 8.9 9 Sudoeste 17 Oeste 0 -- -- 65
2019-11-19 15:00:00 9 12 Sudoeste 22 Sudoeste 0 -- -- 68
2019-11-19 14:00:00 8.9 7 Sudoeste 15 Oeste 0 -- -- 70
2019-11-19 13:00:00 7.5 3 Sudoeste 10 Sur 0 -- -- 83
2019-11-19 12:00:00 5.5 3 Sur 6 Sur 0 -- -- 92
2019-11-19 11:00:00 3.6 3 Sur 7 Sudeste 0 -- -- 96
2019-11-19 10:00:00 1 0 Calma 4 Este 0 -- -- 100
2019-11-19 09:00:00 -0.8 0 Calma 3 Sudeste 0 -- -- 99
2019-11-19 08:00:00 -0.9 2 Este 5 Sudeste 0 -- -- 100
2019-11-19 07:00:00 -0.7 3 Sudeste 4 Sudeste 0 -- -- 99
2019-11-19 06:00:00 -1.9 0 Calma 2 Este 0 -- -- 99
2019-11-19 05:00:00 -1.2 0 Calma 3 Este 0 -- -- 98
2019-11-19 04:00:00 -0.9 2 Nordeste 6 Oeste 0 -- -- 98
2019-11-19 03:00:00 -0.4 0 Calma 4 Nordeste 0 -- -- 97
2019-11-19 02:00:00 1.1 3 Nordeste 3 Nordeste 0 -- -- 96
2019-11-19 01:00:00 2.1 0 Calma 2 Sur 0 -- -- 95
2019-11-19 00:00:00 2.2 0 Calma 5 Este 0 -- -- 98
2019-11-18 23:00:00 2.3 3 Este 4 Sudeste 0 -- -- 95
2019-11-18 22:00:00 2.3 0 Calma 4 Nordeste 0 -- -- 95
2019-11-18 21:00:00 3.2 0 Calma 3 Oeste 0 -- -- 90
2019-11-18 20:00:00 4.2 0 Calma 8 Noroeste 0 -- -- 93
2019-11-18 19:00:00 5 3 Nordeste 5 Nordeste 0 -- -- 88
2019-11-18 18:00:00 7.1 0 Calma 4 Oeste 0 -- -- 77
2019-11-18 17:00:00 9.9 0 Calma 9 Oeste 0 -- -- 59
2019-11-18 16:00:00 9.4 6 Sudoeste 13 Sudeste 0 -- -- 61
2019-11-18 15:00:00 10.1 4 Sur 15 Nordeste 0 -- -- 61
2019-11-18 14:00:00 9 6 Nordeste 16 Nordeste 0 -- -- 62
2019-11-18 13:00:00 8 6 Nordeste 13 Nordeste 0 -- -- 70
2019-11-18 12:00:00 7.1 4 Este 9 Nordeste 0 -- -- 77
2019-11-18 11:00:00 4.6 0 Calma 8 Sudeste 0 -- -- 95
2019-11-18 10:00:00 1.9 4 Sur 9 Sudeste 0 -- -- 98
2019-11-18 09:00:00 -1.2 2 Nordeste 4 Nordeste 0 -- -- 100
2019-11-18 08:00:00 -0.7 0 Calma 6 Noroeste 0.2 -- -- 97
2019-11-18 07:00:00 1.3 4 Noroeste 11 Noroeste 0 -- -- 99
2019-11-18 06:00:00 1.9 4 Noroeste 14 Noroeste 0 -- -- 99
2019-11-18 05:00:00 1.9 4 Noroeste 13 Norte 0 -- -- 99
2019-11-18 04:00:00 1.8 4 Noroeste 8 Noroeste 0 -- -- 99
2019-11-18 03:00:00 2.5 2 Noroeste 9 Noroeste 0 -- -- 96
2019-11-18 02:00:00 3.3 4 Noroeste 15 Noroeste 0 -- -- 95
2019-11-18 01:00:00 3.7 7 Noroeste 22 Noroeste 0 -- -- 95
2019-11-18 00:00:00 3.7 6 Noroeste 19 Noroeste 0 -- -- 94
2019-11-17 23:00:00 4 9 Noroeste 18 Noroeste 0 -- -- 93
2019-11-17 22:00:00 4.2 4 Noroeste 23 Noroeste 0 -- -- 89
2019-11-17 21:00:00 4.9 11 Noroeste 21 Noroeste 0 -- -- 89
2019-11-17 20:00:00 5.2 6 Noroeste 20 Noroeste 0 -- -- 89
2019-11-17 19:00:00 6.1 5 Noroeste 20 Noroeste 0 -- -- 93
2019-11-17 18:00:00 7.3 14 Noroeste 29 Noroeste 0 -- -- 91
2019-11-17 17:00:00 7.9 15 Noroeste 26 Noroeste 0.8 -- -- 94
2019-11-17 16:00:00 9 11 Noroeste 30 Oeste 2 -- -- 94
2019-11-17 15:00:00 9.8 17 Oeste 37 Oeste 0 -- -- 90
2019-11-17 14:00:00 9.1 16 Oeste 39 Oeste 0 -- -- 95
2019-11-17 13:00:00 8.7 17 Oeste 34 Oeste 0 -- -- 98
2019-11-17 12:00:00 7.5 14 Oeste 31 Sudoeste 0 -- -- 100
2019-11-17 11:00:00 6.6 13 Sudoeste 29 Oeste 0.2 -- -- 100
2019-11-17 10:00:00 5.5 6 Sudoeste 17 Sudoeste 0.2 -- -- 100
2019-11-17 09:00:00 4.7 7 Sudoeste 15 Sudoeste 0 -- -- 100
2019-11-17 08:00:00 4.1 6 Sudoeste 19 Sudoeste 0 -- -- 99
2019-11-17 07:00:00 4.1 8 Sudoeste 18 Sur 0 -- -- 97
2019-11-17 06:00:00 4.1 9 Sudoeste 17 Sudoeste 0 -- -- 96
2019-11-17 05:00:00 4.2 9 Sudoeste 20 Sudoeste 0 -- -- 93
2019-11-17 04:00:00 4.5 11 Oeste 20 Oeste 0 -- -- 90
2019-11-17 03:00:00 4.5 6 Oeste 15 Oeste 0 -- -- 88
2019-11-17 02:00:00 4.4 8 Sudoeste 15 Oeste 0 -- -- 85
2019-11-17 01:00:00 4.3 6 Oeste 14 Sudoeste 0 -- -- 84
2019-11-17 00:00:00 4.2 6 Sudoeste 17 Oeste 0 -- -- 82
2019-11-16 23:00:00 4.1 6 Oeste 18 Oeste 0 -- -- 81
2019-11-16 22:00:00 4.3 8 Oeste 13 Oeste 0 -- -- 80
2019-11-16 21:00:00 4.3 6 Oeste 14 Oeste 0 -- -- 81
2019-11-16 20:00:00 4.8 6 Oeste 16 Noroeste 0 -- -- 79
2019-11-16 19:00:00 5.2 10 Oeste 20 Oeste 0 -- -- 76
2019-11-16 18:00:00 5.2 7 Noroeste 24 Oeste 0 -- -- 73
2019-11-16 17:00:00 6 11 Oeste 28 Oeste 0 -- -- 71
2019-11-16 16:00:00 7.2 18 Oeste 35 Oeste 0 -- -- 68
2019-11-16 15:00:00 7.7 17 Oeste 31 Oeste 0 -- -- 67
2019-11-16 14:00:00 6.5 10 Noroeste 27 Oeste 0 -- -- 75
2019-11-16 13:00:00 6.2 13 Oeste 24 Oeste 0 -- -- 77
2019-11-16 12:00:00 5.3 8 Oeste 15 Noroeste 0 -- -- 85
2019-11-16 11:00:00 3.2 4 Sudoeste 9 Sudoeste 0 -- -- 90
2019-11-16 10:00:00 1 4 Oeste 10 Oeste 0 -- -- 98
2019-11-16 09:00:00 -2.4 0 Calma 4 Sudeste 0 -- -- 100
2019-11-16 08:00:00 -3.2 2 Sudeste 5 Noroeste 0 -- -- 97
2019-11-16 07:00:00 -1.7 0 Calma 8 Noroeste 0 -- -- 95
2019-11-16 06:00:00 -0.8 3 Noroeste 6 Noroeste 0 -- -- 98
2019-11-16 05:00:00 -0.3 4 Noroeste 9 Noroeste 0 -- -- 97
2019-11-16 04:00:00 -0.1 4 Noroeste 8 Noroeste 0 -- -- 96
2019-11-16 03:00:00 0.2 4 Noroeste 9 Noroeste 0 -- -- 95
2019-11-16 02:00:00 0 3 Oeste 12 Noroeste 0 -- -- 93
2019-11-16 01:00:00 0.7 3 Noroeste 9 Noroeste 0 -- -- 93
2019-11-16 00:00:00 1.5 3 Oeste 9 Noroeste 0 -- -- 90
2019-11-15 23:00:00 2.6 4 Noroeste 19 Noroeste 0 -- -- 87
2019-11-15 22:00:00 3.3 7 Noroeste 19 Noroeste 0 -- -- 86
2019-11-15 21:00:00 3.6 11 Noroeste 28 Noroeste 0 -- -- 84
2019-11-15 20:00:00 3.6 9 Noroeste 21 Oeste 0 -- -- 83
2019-11-15 19:00:00 3.8 11 Noroeste 25 Noroeste 0 -- -- 81
2019-11-15 18:00:00 4.6 14 Noroeste 35 Noroeste 0 -- -- 74
2019-11-15 17:00:00 6.2 15 Noroeste 34 Noroeste 0 -- -- 65
2019-11-15 16:00:00 6.9 15 Noroeste 33 Noroeste 0 -- -- 68
2019-11-15 15:00:00 6.8 16 Noroeste 35 Noroeste 0 -- -- 65
2019-11-15 14:00:00 5.7 12 Noroeste 35 Oeste 0 -- -- 68
2019-11-15 13:00:00 6.1 15 Noroeste 32 Noroeste 0 -- -- 72
2019-11-15 12:00:00 5.2 17 Noroeste 36 Noroeste 0 -- -- 74
2019-11-15 11:00:00 4.4 14 Noroeste 33 Noroeste 0 -- -- 82
2019-11-15 10:00:00 3.2 12 Noroeste 22 Oeste 0 -- -- 87
2019-11-15 09:00:00 2.2 7 Noroeste 23 Noroeste 0 -- -- 90
2019-11-15 08:00:00 2.1 11 Noroeste 26 Noroeste 0 -- -- 90
2019-11-15 07:00:00 2.3 11 Noroeste 25 Noroeste 0 -- -- 89
2019-11-15 06:00:00 2.3 12 Noroeste 27 Noroeste 0 -- -- 89
2019-11-15 05:00:00 2.4 13 Noroeste 28 Oeste 0 -- -- 88
2019-11-15 04:00:00 2.7 15 Noroeste 29 Noroeste 0 -- -- 87
2019-11-15 03:00:00 2.8 17 Noroeste 40 Noroeste 0 -- -- 86
2019-11-15 02:00:00 3 19 Noroeste 37 Oeste 0 -- -- 84
2019-11-15 01:00:00 3.3 17 Noroeste 35 Oeste 0 -- -- 85
2019-11-15 00:00:00 3.3 18 Noroeste 34 Oeste 0 -- -- 86
2019-11-14 23:00:00 3.9 16 Noroeste 38 Noroeste 0 -- -- 85
2019-11-14 22:00:00 4 18 Noroeste 36 Noroeste 0 -- -- 86
2019-11-14 21:00:00 4 18 Noroeste 42 Noroeste 0 -- -- 86
2019-11-14 20:00:00 4.6 19 Noroeste 50 Oeste 0 -- -- 87
2019-11-14 19:00:00 4.9 24 Noroeste 52 Oeste 0.2 -- -- 88
2019-11-14 18:00:00 5.1 27 Noroeste 51 Noroeste 0 -- -- 86
2019-11-14 17:00:00 5.2 26 Oeste 53 Noroeste 0.2 -- -- 90
2019-11-14 16:00:00 4.6 24 Oeste 51 Oeste 0.2 -- -- 94
2019-11-14 15:00:00 4.6 23 Oeste 58 Oeste 0.2 -- -- 94
2019-11-14 14:00:00 3.5 23 Oeste 48 Oeste 1 -- -- 92
2019-11-14 13:00:00 5.1 27 Oeste 50 Oeste 0 -- -- 82
2019-11-14 12:00:00 4.6 25 Oeste 42 Oeste 0 -- -- 87
2019-11-14 11:00:00 4.3 20 Oeste 36 Oeste 0 -- -- 91
2019-11-14 10:00:00 3.2 19 Oeste 37 Oeste 0.4 -- -- 95
2019-11-14 09:00:00 2.8 13 Oeste 25 Oeste 0 -- -- 94
2019-11-14 08:00:00 2.7 11 Noroeste 33 Oeste 0 -- -- 93
2019-11-14 07:00:00 3.3 14 Noroeste 34 Noroeste 0.4 -- -- 93
2019-11-14 06:00:00 4.1 13 Noroeste 45 Noroeste 2 -- -- 95
2019-11-14 05:00:00 5.1 16 Noroeste 45 Oeste 1.4 -- -- 93
2019-11-14 04:00:00 7.1 25 Oeste 47 Oeste 0.4 -- -- 93
2019-11-14 03:00:00 6.9 24 Oeste 39 Oeste 0.4 -- -- 96
2019-11-14 02:00:00 7.5 22 Oeste 42 Oeste 0 -- -- 89
2019-11-14 01:00:00 7.1 15 Oeste 30 Oeste 0 -- -- 89
2019-11-14 00:00:00 7.4 20 Sudoeste 32 Sudoeste 0 -- -- 86
2019-11-13 23:00:00 7.3 15 Oeste 38 Oeste 0 -- -- 83
2019-11-13 22:00:00 8 15 Oeste 36 Oeste 0 -- -- 81
2019-11-13 21:00:00 9.4 20 Oeste 35 Oeste 0 -- -- 80
2019-11-13 20:00:00 9.4 9 Oeste 20 Oeste 0 -- -- 84
2019-11-13 19:00:00 9.8 6 Oeste 18 Oeste 0 -- -- 82
2019-11-13 18:00:00 11.2 4 Oeste 25 Oeste 0 -- -- 75
2019-11-13 17:00:00 12.7 12 Noroeste 29 Noroeste 0 -- -- 70
2019-11-13 16:00:00 13.7 14 Oeste 31 Oeste 0 -- -- 68
2019-11-13 15:00:00 14.1 12 Noroeste 24 Noroeste 0 -- -- 70
2019-11-13 14:00:00 13.6 7 Oeste 15 Noroeste 0 -- -- 73
2019-11-13 13:00:00 13 6 Oeste 16 Oeste 0 -- -- 78
2019-11-13 12:00:00 12.4 5 Noroeste 16 Noroeste 0 -- -- 85
2019-11-13 11:00:00 12.3 8 Noroeste 22 Noroeste 0 -- -- 87
2019-11-13 10:00:00 11.6 8 Noroeste 18 Noroeste 0 -- -- 94
2019-11-13 09:00:00 10.6 5 Oeste 22 Oeste 0 -- -- 98
2019-11-13 08:00:00 10.7 13 Noroeste 30 Noroeste 0.2 -- -- 98
2019-11-13 07:00:00 11.2 17 Oeste 28 Oeste 1.2 -- -- 98
2019-11-13 06:00:00 11.4 12 Noroeste 28 Oeste 1 -- -- 99
2019-11-13 05:00:00 11.5 17 Oeste 38 Oeste 0.4 -- -- 99
2019-11-13 04:00:00 11.1 18 Oeste 38 Oeste 0.4 -- -- 100
2019-11-13 03:00:00 10.6 18 Oeste 39 Oeste 0.2 -- -- 100
2019-11-13 02:00:00 10.3 18 Oeste 37 Oeste 0.2 -- -- 99
2019-11-13 01:00:00 10.1 21 Oeste 45 Oeste 0.8 -- -- 99
2019-11-13 00:00:00 9.8 21 Oeste 39 Sudoeste 1.8 -- -- 99
2019-11-12 23:00:00 9.4 17 Oeste 34 Sudoeste 0.2 -- -- 99
2019-11-12 22:00:00 8.8 15 Sudoeste 30 Oeste 1 -- -- 99
2019-11-12 21:00:00 8.4 14 Sudoeste 30 Sudoeste 0.4 -- -- 98
2019-11-12 20:00:00 8 16 Sudoeste 32 Oeste 0 -- -- 97
2019-11-12 19:00:00 7.6 18 Sudoeste 30 Oeste 0 -- -- 97
2019-11-12 18:00:00 7.7 16 Oeste 31 Sudoeste 0 -- -- 91
2019-11-12 17:00:00 8.3 12 Oeste 26 Oeste 0 -- -- 85
2019-11-12 16:00:00 8.7 15 Oeste 28 Oeste 0 -- -- 81
2019-11-12 15:00:00 9.2 10 Oeste 24 Oeste 0 -- -- 77
2019-11-12 14:00:00 9.2 13 Noroeste 26 Noroeste 0 -- -- 75
2019-11-12 13:00:00 9.4 8 Oeste 26 Oeste 0 -- -- 75
2019-11-12 12:00:00 8.9 12 Oeste 18 Oeste 0 -- -- 73
2019-11-12 11:00:00 7.4 6 Noroeste 15 Noroeste 0 -- -- 79
2019-11-12 10:00:00 5.6 5 Noroeste 16 Noroeste 0 -- -- 89
2019-11-12 09:00:00 2.8 0 Calma 4 Sudeste 0 -- -- 97
2019-11-12 08:00:00 2 2 Nordeste 4 Noroeste 0 -- -- 95
2019-11-12 07:00:00 3.3 2 Oeste 4 Noroeste 0 -- -- 93
2019-11-12 06:00:00 2.9 0 Calma 5 Noroeste 0 -- -- 95
2019-11-12 05:00:00 2.6 0 Calma 4 Nordeste 0 -- -- 92
2019-11-12 04:00:00 2.5 0 Calma 3 Nordeste 0 -- -- 95
2019-11-12 03:00:00 1.8 0 Calma 3 Oeste 0 -- -- 92
2019-11-12 02:00:00 2.7 0 Calma 9 Nordeste 0 -- -- 88
2019-11-12 01:00:00 2.6 7 Nordeste 8 Este 0 -- -- 90
2019-11-12 00:00:00 2.6 4 Nordeste 9 Nordeste 0 -- -- 86
2019-11-11 23:00:00 3.2 4 Nordeste 9 Nordeste 0 -- -- 85
2019-11-11 22:00:00 3.8 2 Nordeste 10 Nordeste 0 -- -- 83
2019-11-11 21:00:00 5.3 6 Nordeste 10 Nordeste 0 -- -- 79
2019-11-11 20:00:00 7.4 7 Nordeste 17 Nordeste 0 -- -- 73
2019-11-11 19:00:00 9.7 6 Norte 12 Norte 0 -- -- 71
2019-11-11 18:00:00 12 5 Norte 24 Noroeste 0 -- -- 68
2019-11-11 17:00:00 13.1 11 Noroeste 23 Oeste 0 -- -- 69
2019-11-11 16:00:00 13.6 14 Noroeste 26 Noroeste 0 -- -- 73
2019-11-11 15:00:00 13.3 11 Noroeste 22 Noroeste 0 -- -- 77
2019-11-11 14:00:00 13 9 Noroeste 25 Noroeste 0 -- -- 80
2019-11-11 13:00:00 11.7 12 Noroeste 25 Noroeste 0 -- -- 89
2019-11-11 12:00:00 10.7 12 Oeste 21 Noroeste 0 -- -- 95
2019-11-11 11:00:00 9.9 8 Noroeste 18 Noroeste 0 -- -- 100
2019-11-11 10:00:00 8.7 4 Oeste 9 Oeste 0 -- -- 100
2019-11-11 09:00:00 7.8 4 Oeste 9 Sudoeste 0 -- -- 100
2019-11-11 08:00:00 7.4 6 Sudoeste 14 Sudoeste 0 -- -- 100
2019-11-11 07:00:00 7.1 7 Oeste 13 Oeste 0 -- -- 99
2019-11-11 06:00:00 6.5 3 Sur 5 Sur 0 -- -- 98
2019-11-11 05:00:00 6.4 4 Sudoeste 10 Sudoeste 0 -- -- 98
2019-11-11 04:00:00 6.2 3 Oeste 12 Oeste 0 -- -- 98
2019-11-11 03:00:00 6 5 Oeste 14 Oeste 0 -- -- 97
2019-11-11 02:00:00 5.7 8 Oeste 20 Oeste 0 -- -- 97
2019-11-11 01:00:00 5.6 8 Oeste 15 Oeste 0 -- -- 96
2019-11-11 00:00:00 5.5 8 Oeste 19 Noroeste 0 -- -- 95
2019-11-10 23:00:00 5.6 7 Oeste 17 Oeste 0 -- -- 93
2019-11-10 22:00:00 5.4 8 Oeste 19 Oeste 0 -- -- 91
2019-11-10 21:00:00 5.6 12 Oeste 22 Oeste 0 -- -- 90
2019-11-10 20:00:00 5.8 10 Noroeste 21 Noroeste 0 -- -- 90
2019-11-10 19:00:00 6.1 8 Oeste 24 Noroeste 0 -- -- 88
2019-11-10 18:00:00 6.3 12 Noroeste 28 Oeste 0 -- -- 85
2019-11-10 17:00:00 6.8 15 Noroeste 26 Oeste 0 -- -- 81
2019-11-10 16:00:00 7 13 Noroeste 36 Noroeste 0 -- -- 79
2019-11-10 15:00:00 7.3 14 Noroeste 40 Noroeste 0 -- -- 78
2019-11-10 14:00:00 7.4 20 Noroeste 42 Noroeste 0 -- -- 77
2019-11-10 13:00:00 7.7 18 Noroeste 39 Oeste 0 -- -- 78
2019-11-10 12:00:00 6.9 17 Noroeste 32 Oeste 0 -- -- 78
2019-11-10 11:00:00 6.6 13 Noroeste 30 Noroeste 0 -- -- 81
2019-11-10 10:00:00 5.3 14 Oeste 27 Oeste 0 -- -- 86
2019-11-10 09:00:00 4.6 12 Oeste 26 Oeste 0.2 -- -- 88
2019-11-10 08:00:00 4.1 10 Oeste 29 Noroeste 0 -- -- 90
2019-11-10 07:00:00 4 13 Noroeste 31 Oeste 0 -- -- 89
2019-11-10 06:00:00 3.9 10 Noroeste 22 Oeste 0 -- -- 87
2019-11-10 05:00:00 4 9 Oeste 22 Noroeste 0 -- -- 87
2019-11-10 04:00:00 4.8 12 Oeste 30 Oeste 0 -- -- 85
2019-11-10 03:00:00 5.4 11 Noroeste 28 Noroeste 0 -- -- 81
2019-11-10 02:00:00 5.4 13 Noroeste 32 Oeste 0 -- -- 77
2019-11-10 01:00:00 6.6 17 Noroeste 34 Oeste 0 -- -- 84
2019-11-10 00:00:00 6.9 16 Noroeste 31 Noroeste 0 -- -- 88
2019-11-09 23:00:00 7.2 15 Noroeste 35 Noroeste 0 -- -- 86
2019-11-09 22:00:00 7 10 Oeste 23 Oeste 0 -- -- 90
2019-11-09 21:00:00 7.5 14 Noroeste 31 Noroeste 0 -- -- 89
2019-11-09 20:00:00 7.3 7 Oeste 23 Oeste 0 -- -- 95
2019-11-09 19:00:00 8.2 10 Oeste 24 Oeste 0 -- -- 96
2019-11-09 18:00:00 8.8 13 Noroeste 34 Oeste 0 -- -- 97
2019-11-09 17:00:00 8.5 12 Oeste 25 Oeste 0 -- -- 100
2019-11-09 16:00:00 8 14 Oeste 24 Oeste 0 -- -- 99
2019-11-09 15:00:00 7.5 10 Oeste 22 Sudoeste 0.8 -- -- 99
2019-11-09 14:00:00 6.9 8 Oeste 19 Oeste 1.2 -- -- 98
2019-11-09 13:00:00 6.6 10 Sudoeste 21 Oeste 1.2 -- -- 98
2019-11-09 12:00:00 6.2 10 Oeste 24 Oeste 0.2 -- -- 96
2019-11-09 11:00:00 5.8 10 Oeste 24 Oeste 0 -- -- 96
2019-11-09 10:00:00 5.2 13 Sudoeste 21 Sudoeste 0.6 -- -- 97
2019-11-09 09:00:00 4.7 4 Oeste 17 Oeste 0.4 -- -- 96
2019-11-09 08:00:00 4.5 6 Oeste 13 Oeste 0 -- -- 93
2019-11-09 07:00:00 4.3 4 Oeste 14 Oeste 0 -- -- 92
2019-11-09 06:00:00 4 9 Oeste 15 Oeste 0 -- -- 92
2019-11-09 05:00:00 3.9 8 Oeste 17 Oeste 0 -- -- 91
2019-11-09 04:00:00 3.7 3 Oeste 12 Oeste 0 -- -- 92
2019-11-09 03:00:00 4 6 Oeste 14 Oeste 0 -- -- 92
2019-11-09 02:00:00 4.3 6 Noroeste 20 Noroeste 0 -- -- 90
2019-11-09 01:00:00 3.8 4 Oeste 12 Oeste 0 -- -- 92
2019-11-09 00:00:00 2.8 0 Calma 10 Oeste 0 -- -- 86
2019-11-08 23:00:00 4.2 6 Oeste 12 Oeste 0 -- -- 87
2019-11-08 22:00:00 4.9 6 Oeste 22 Noroeste 0 -- -- 84
2019-11-08 21:00:00 5.6 8 Noroeste 22 Noroeste 0 -- -- 81
2019-11-08 20:00:00 6.3 10 Noroeste 37 Oeste 0 -- -- 76
2019-11-08 19:00:00 7.3 9 Noroeste 26 Oeste 0 -- -- 73
2019-11-08 18:00:00 7.8 15 Noroeste 36 Oeste 0 -- -- 68
2019-11-08 17:00:00 8.4 22 Noroeste 38 Noroeste 0 -- -- 66
2019-11-08 16:00:00 8.5 19 Noroeste 36 Oeste 0 -- -- 70
2019-11-08 15:00:00 9.2 16 Oeste 36 Oeste 0 -- -- 70
2019-11-08 14:00:00 8.1 16 Noroeste 35 Oeste 0 -- -- 70
2019-11-08 13:00:00 7.7 18 Oeste 33 Oeste 0 -- -- 71
2019-11-08 12:00:00 7.3 13 Noroeste 28 Noroeste 0 -- -- 77
2019-11-08 11:00:00 5.9 15 Noroeste 33 Noroeste 0 -- -- 84
2019-11-08 10:00:00 4.8 16 Oeste 27 Oeste 0 -- -- 87
2019-11-08 09:00:00 3.2 13 Oeste 26 Oeste 0 -- -- 91
2019-11-08 08:00:00 2.7 13 Oeste 25 Noroeste 0 -- -- 92
2019-11-08 07:00:00 2.4 8 Oeste 21 Noroeste 0 -- -- 92
2019-11-08 06:00:00 2.2 12 Oeste 23 Oeste 0 -- -- 93
2019-11-08 05:00:00 2.6 13 Oeste 24 Oeste 0 -- -- 92
2019-11-08 04:00:00 2.3 9 Oeste 19 Oeste 0 -- -- 95
2019-11-08 03:00:00 2.5 10 Oeste 22 Oeste 0 -- -- 94
2019-11-08 02:00:00 3.1 11 Oeste 26 Oeste 0 -- -- 93
2019-11-08 01:00:00 3 14 Oeste 29 Oeste 0 -- -- 92
2019-11-08 00:00:00 3 14 Oeste 32 Oeste 0 -- -- 92